Time;durP1;ratioP1;P1;durP2;ratioP2;P2;SDS_P1;SDS_P2;PMS_P1;PMS_P2;Temp;Humidity;BMP_temperature;BMP_pressure;BME280_temperature;BME280_humidity;BME280_pressure;Samples;Min_cycle;Max_cycle;Signal;HPM_P1;HPM_P2
2022/05/18 00:01:42;;;;;;;;;;;;;;;23.73;46.98;101712.50;5076586;28;19921;-86
2022/05/18 00:04:07;;;;;;;;;;;;;;;23.73;46.98;101709.75;5077593;28;20049;-84
2022/05/18 00:06:33;;;;;;;;;;;;;;;23.72;47.02;101714.47;5076043;28;19942;-86
2022/05/18 00:08:58;;;;;;;;;;;;;;;23.72;47.22;101714.47;5076210;28;19921;-86
2022/05/18 00:11:24;;;;;;;;;;;;;;;23.71;46.78;101715.56;5077787;28;19935;-85
2022/05/18 00:13:52;;;;;;;;;;;;;;;23.71;47.03;101712.81;5076210;28;19947;-86
2022/05/18 00:16:18;;;;;;;;;;;;;;;23.71;47.39;101720.25;5076681;28;19996;-85
2022/05/18 00:18:45;;;;;;;;;;;;;;;23.70;47.23;101724.13;5075660;28;19938;-86
2022/05/18 00:21:10;;;;;;;;;;;;;;;23.70;47.01;101718.63;5076256;28;20023;-86
2022/05/18 00:23:35;;;;;;;;;;;;;;;23.68;46.88;101724.44;5075964;28;19988;-85
2022/05/18 00:26:01;;;;;;;;;;;;;;;23.69;47.38;101723.34;5075620;28;19917;-85
2022/05/18 00:28:27;;;;;;;;;;;;;;;23.69;46.87;101722.53;5076222;28;20398;-85
2022/05/18 00:30:52;;;;;;;;;;;;;;;23.68;47.22;101726.38;5076036;28;20424;-85
2022/05/18 00:33:18;;;;;;;;;;;;;;;23.68;47.33;101737.41;5077331;28;20053;-85
2022/05/18 00:35:43;;;;;;;;;;;;;;;23.67;46.90;101731.09;5075769;28;20360;-85
2022/05/18 00:38:08;;;;;;;;;;;;;;;23.66;46.89;101729.47;5058939;28;19920;-86
2022/05/18 00:40:35;;;;;;;;;;;;;;;23.66;46.99;101726.72;5077588;28;20288;-86
2022/05/18 00:43:00;;;;;;;;;;;;;;;23.67;47.04;101725.56;5076838;28;19916;-86
2022/05/18 00:45:26;;;;;;;;;;;;;;;23.66;47.29;101710.16;5075487;28;19927;-86
2022/05/18 00:47:51;;;;;;;;;;;;;;;23.66;46.95;101712.06;5075618;28;19973;-85
2022/05/18 00:50:19;;;;;;;;;;;;;;;23.65;46.94;101724.25;5059249;28;19963;-86
2022/05/18 00:52:51;;;;;;;;;;;;;;;23.64;46.91;101717.91;5076739;28;19942;-85
2022/05/18 00:55:18;;;;;;;;;;;;;;;23.64;47.19;101728.94;5076328;28;19939;-85
2022/05/18 00:57:50;;;;;;;;;;;;;;;23.64;47.34;101726.19;5075277;28;19942;-85
2022/05/18 01:00:18;;;;;;;;;;;;;;;23.63;46.99;101724.53;5076518;28;19977;-85
2022/05/18 01:02:46;;;;;;;;;;;;;;;23.63;47.03;101724.53;5075828;28;20247;-84
2022/05/18 01:05:14;;;;;;;;;;;;;;;23.63;47.27;101723.72;5076534;28;19943;-85
2022/05/18 01:07:48;;;;;;;;;;;;;;;23.63;47.33;101726.50;5076785;28;19951;-85
2022/05/18 01:10:14;;;;;;;;;;;;;;;23.63;47.37;101726.50;5075831;28;19943;-84
2022/05/18 01:12:39;;;;;;;;;;;;;;;23.62;46.89;101727.63;5075083;28;19920;-84
2022/05/18 01:15:07;;;;;;;;;;;;;;;23.61;47.21;101729.56;5075947;28;19972;-84
2022/05/18 01:17:34;;;;;;;;;;;;;;;23.61;47.01;101725.97;5076320;28;19920;-84
2022/05/18 01:20:01;;;;;;;;;;;;;;;23.61;47.32;101731.50;5075629;28;19934;-83
2022/05/18 01:22:36;;;;;;;;;;;;;;;23.61;47.21;101723.22;5074961;28;20452;-84
2022/05/18 01:25:08;;;;;;;;;;;;;;;23.61;47.38;101720.47;5075840;28;20372;-83
2022/05/18 01:27:33;;;;;;;;;;;;;;;23.60;47.36;101716.06;5076811;28;19981;-84
2022/05/18 01:29:59;;;;;;;;;;;;;;;23.59;47.35;101723.53;5076099;28;20395;-84
2022/05/18 01:32:24;;;;;;;;;;;;;;;23.59;47.43;101712.50;5074625;28;19992;-85
2022/05/18 01:34:50;;;;;;;;;;;;;;;23.59;46.97;101717.22;5057991;28;20037;-84
2022/05/18 01:37:15;;;;;;;;;;;;;;;23.59;47.36;101722.72;5074309;28;19935;-85
2022/05/18 01:39:41;;;;;;;;;;;;;;;23.59;47.25;101719.97;5075821;28;19927;-85
2022/05/18 01:42:12;;;;;;;;;;;;;;;23.58;47.37;101719.13;5074440;28;20313;-84
2022/05/18 01:44:38;;;;;;;;;;;;;;;23.57;46.94;101719.47;5076326;28;19950;-84
2022/05/18 01:47:03;;;;;;;;;;;;;;;23.57;46.92;101717.50;5074867;28;19921;-84
2022/05/18 01:49:29;;;;;;;;;;;;;;;23.57;46.80;101702.91;5074436;28;20013;-84
2022/05/18 01:51:56;;;;;;;;;;;;;;;23.56;46.99;101713.09;5074637;28;19935;-84
2022/05/18 01:54:21;;;;;;;;;;;;;;;23.55;47.32;101706.78;5075489;28;20023;-84
2022/05/18 01:56:46;;;;;;;;;;;;;;;23.55;46.98;101711.47;5074189;28;19966;-84
2022/05/18 01:59:12;;;;;;;;;;;;;;;23.55;47.01;101717.00;5075402;28;19966;-83
2022/05/18 02:01:38;;;;;;;;;;;;;;;23.54;47.00;101715.38;5057455;28;19927;-84
2022/05/18 02:04:03;;;;;;;;;;;;;;;23.54;46.96;101716.19;5074016;28;19950;-83
2022/05/18 02:06:31;;;;;;;;;;;;;;;23.54;47.36;101712.63;5074891;28;19924;-84
2022/05/18 02:08:58;;;;;;;;;;;;;;;23.53;47.27;101711.78;5075000;28;19950;-84
2022/05/18 02:11:23;;;;;;;;;;;;;;;23.53;47.47;101708.22;5074928;28;19928;-84
2022/05/18 02:13:48;;;;;;;;;;;;;;;23.52;47.36;101712.91;5074396;28;19916;-84
2022/05/18 02:16:14;;;;;;;;;;;;;;;23.53;47.08;101716.47;5057401;28;20202;-84
2022/05/18 02:18:39;;;;;;;;;;;;;;;23.52;47.35;101720.38;5074758;28;19943;-84
2022/05/18 02:21:07;;;;;;;;;;;;;;;23.51;47.33;101711.28;5075012;28;19921;-84
2022/05/18 02:23:33;;;;;;;;;;;;;;;23.52;47.34;101706.59;5073685;28;19916;-84
2022/05/18 02:25:58;;;;;;;;;;;;;;;23.51;47.42;101713.19;5074911;28;19927;-84
2022/05/18 02:28:24;;;;;;;;;;;;;;;23.51;47.10;101719.56;5074030;28;20394;-84
2022/05/18 02:30:49;;;;;;;;;;;;;;;23.50;47.51;101709.63;5075144;28;19941;-84
2022/05/18 02:33:15;;;;;;;;;;;;;;;23.50;47.12;101717.91;5073498;28;19921;-84
2022/05/18 02:35:41;;;;;;;;;;;;;;;23.50;47.41;101711.59;5056763;28;19946;-84
2022/05/18 02:38:06;;;;;;;;;;;;;;;23.50;47.47;101717.09;5073461;28;20062;-84
2022/05/18 02:40:32;;;;;;;;;;;;;;;23.50;47.41;101715.16;5073256;28;19978;-84
2022/05/18 02:42:57;;;;;;;;;;;;;;;23.49;47.04;101713.53;5056655;28;19953;-84
2022/05/18 02:45:22;;;;;;;;;;;;;;;23.48;47.47;101717.41;5074455;28;20069;-84
2022/05/18 02:47:48;;;;;;;;;;;;;;;23.48;47.09;101709.13;5074521;28;19917;-84
2022/05/18 02:50:13;;;;;;;;;;;;;;;23.49;47.44;101713.53;5073125;28;19924;-84
2022/05/18 02:52:39;;;;;;;;;;;;;;;23.48;47.34;101720.16;5074717;28;19927;-84
2022/05/18 02:57:48;;;;;;;;;;;;;;;23.47;47.50;101718.53;5075083;28;20278;-84
2022/05/18 03:00:14;;;;;;;;;;;;;;;23.47;47.47;101720.47;5056571;28;19947;-84
2022/05/18 03:02:39;;;;;;;;;;;;;;;23.47;47.53;101724.03;5057239;28;20401;-84
2022/05/18 03:05:04;;;;;;;;;;;;;;;23.47;47.42;101726.00;5074530;28;19948;-83
2022/05/18 03:07:30;;;;;;;;;;;;;;;23.46;47.53;101729.84;5073036;28;19943;-83
2022/05/18 03:09:55;;;;;;;;;;;;;;;23.46;47.36;101735.38;5072867;28;20020;-83
2022/05/18 03:12:20;;;;;;;;;;;;;;;23.45;47.54;101734.56;5074401;28;19916;-83
2022/05/18 03:14:46;;;;;;;;;;;;;;;23.45;47.43;101729.03;5072873;28;19947;-84
2022/05/18 03:17:13;;;;;;;;;;;;;;;23.44;47.23;101732.94;5074070;28;20361;-83
2022/05/18 03:19:38;;;;;;;;;;;;;;;23.45;47.24;101739.25;5072894;28;19931;-84
2022/05/18 03:24:49;;;;;;;;;;;;;;;23.44;47.43;101743.16;5073312;28;19927;-83
2022/05/18 03:27:14;;;;;;;;;;;;;;;23.44;47.29;101743.97;5056166;28;19955;-83
2022/05/18 03:29:39;;;;;;;;;;;;;;;23.45;47.11;101742.00;5072691;28;20462;-83
2022/05/18 03:32:05;;;;;;;;;;;;;;;23.45;47.41;101739.25;5072960;28;19953;-83
2022/05/18 03:34:30;;;;;;;;;;;;;;;23.43;47.54;101742.31;5074413;28;19924;-83
2022/05/18 03:36:55;;;;;;;;;;;;;;;23.43;47.46;101734.03;5055935;28;19958;-83
2022/05/18 03:39:20;;;;;;;;;;;;;;;23.43;47.19;101736.00;5072637;28;20314;-84
2022/05/18 03:41:46;;;;;;;;;;;;;;;23.43;47.45;101739.56;5072959;28;20313;-84
2022/05/18 03:44:11;;;;;;;;;;;;;;;23.43;47.10;101741.50;5056001;28;20364;-83
2022/05/18 03:46:36;;;;;;;;;;;;;;;23.43;47.39;101741.50;5072802;28;20393;-83
2022/05/18 03:49:03;;;;;;;;;;;;;;;23.43;47.10;101749.78;5072055;28;20054;-83
2022/05/18 03:51:29;;;;;;;;;;;;;;;23.42;47.47;101750.91;5073689;28;19984;-83
2022/05/18 03:53:54;;;;;;;;;;;;;;;23.42;47.33;101745.38;5055797;28;20392;-83
2022/05/18 03:56:19;;;;;;;;;;;;;;;23.42;47.52;101745.38;5055863;28;19921;-83
2022/05/18 03:58:45;;;;;;;;;;;;;;;23.41;47.50;101743.75;5056481;28;19951;-84
2022/05/18 04:01:11;;;;;;;;;;;;;;;23.41;47.49;101744.59;5072776;28;20011;-84
2022/05/18 04:03:41;;;;;;;;;;;;;;;23.41;47.52;101747.34;5073233;28;19944;-83
2022/05/18 04:06:07;;;;;;;;;;;;;;;23.41;47.18;101752.84;5073131;28;19956;-83
2022/05/18 04:08:32;;;;;;;;;;;;;;;23.41;47.52;101754.78;5072234;28;20374;-84
2022/05/18 04:10:58;;;;;;;;;;;;;;;23.41;47.41;101757.53;5072340;28;19961;-84
2022/05/18 04:13:26;;;;;;;;;;;;;;;23.41;47.47;101763.03;5072514;28;20020;-83
2022/05/18 04:15:52;;;;;;;;;;;;;;;23.40;47.19;101770.50;5072283;28;20334;-84
2022/05/18 04:18:18;;;;;;;;;;;;;;;23.41;47.46;101774.91;5073492;28;20382;-83
2022/05/18 04:20:43;;;;;;;;;;;;;;;23.41;47.57;101768.56;5073518;28;20305;-84
2022/05/18 04:23:09;;;;;;;;;;;;;;;23.40;47.35;101775.19;5073436;28;19931;-84
2022/05/18 04:25:36;;;;;;;;;;;;;;;23.40;47.12;101767.75;5071976;28;20000;-84
2022/05/18 04:28:02;;;;;;;;;;;;;;;23.40;47.35;101776.00;5073175;28;20323;-84
2022/05/18 04:30:28;;;;;;;;;;;;;;;23.40;47.14;101783.47;5071992;28;19923;-83
2022/05/18 04:32:53;;;;;;;;;;;;;;;23.39;47.46;101768.88;5055365;28;20372;-83
2022/05/18 04:35:20;;;;;;;;;;;;;;;23.40;47.37;101772.44;5072345;28;19931;-83
2022/05/18 04:37:46;;;;;;;;;;;;;;;23.40;47.46;101783.47;5073307;28;20022;-84
2022/05/18 04:40:11;;;;;;;;;;;;;;;23.40;47.46;101781.53;5059258;28;19994;-84
2022/05/18 04:42:36;;;;;;;;;;;;;;;23.39;47.50;101788.19;5075890;28;19970;-84
2022/05/18 04:45:03;;;;;;;;;;;;;;;23.39;47.26;101788.19;5075339;28;19953;-84
2022/05/18 04:47:28;;;;;;;;;;;;;;;23.40;47.29;101783.47;5076277;28;19921;-84
2022/05/18 04:49:55;;;;;;;;;;;;;;;23.39;47.15;101793.69;5077505;28;19981;-85
2022/05/18 04:52:21;;;;;;;;;;;;;;;23.40;47.47;101789.81;5075437;28;20041;-85
2022/05/18 04:54:46;;;;;;;;;;;;;;;23.39;47.13;101799.22;5075464;28;20379;-85
2022/05/18 04:57:12;;;;;;;;;;;;;;;23.39;47.39;101801.97;5076921;28;19942;-85
2022/05/18 04:59:37;;;;;;;;;;;;;;;23.39;47.42;101798.41;5075291;28;19944;-83
2022/05/18 05:02:03;;;;;;;;;;;;;;;23.39;47.20;101807.47;5076237;28;20107;-85
2022/05/18 05:04:28;;;;;;;;;;;;;;;23.40;47.50;101816.56;5075404;28;20283;-86
2022/05/18 05:06:54;;;;;;;;;;;;;;;23.40;47.54;101820.13;5075175;28;19923;-84
2022/05/18 05:09:22;;;;;;;;;;;;;;;23.41;47.57;101829.22;5076442;28;19923;-87
2022/05/18 05:11:47;;;;;;;;;;;;;;;23.41;47.58;101818.19;5076470;28;19950;-85
2022/05/18 05:14:13;;;;;;;;;;;;;;;23.41;47.53;101821.78;5076717;28;19921;-84
2022/05/18 05:16:38;;;;;;;;;;;;;;;23.41;47.15;101819.03;5076293;28;19951;-85
2022/05/18 05:19:03;;;;;;;;;;;;;;;23.41;47.26;101820.94;5076291;28;19931;-84
2022/05/18 05:21:28;;;;;;;;;;;;;;;23.42;47.26;101822.59;5075251;28;20345;-85
2022/05/18 05:23:54;;;;;;;;;;;;;;;23.41;47.51;101826.47;5058366;28;20422;-84
2022/05/18 05:26:19;;;;;;;;;;;;;;;23.41;47.24;101832.81;5058765;28;19992;-85
2022/05/18 05:28:44;;;;;;;;;;;;;;;23.41;47.51;101832.81;5074882;28;19925;-85
2022/05/18 05:31:10;;;;;;;;;;;;;;;23.41;47.52;101834.72;5076046;28;19940;-85
2022/05/18 05:33:37;;;;;;;;;;;;;;;23.41;47.26;101843.84;5075852;28;19974;-84
2022/05/18 05:36:02;;;;;;;;;;;;;;;23.42;47.63;101845.47;5074826;28;19979;-85
2022/05/18 05:38:28;;;;;;;;;;;;;;;23.41;47.57;101845.75;5075365;28;20298;-85
2022/05/18 05:40:55;;;;;;;;;;;;;;;23.41;47.25;101849.34;5074808;28;20430;-87
2022/05/18 05:43:20;;;;;;;;;;;;;;;23.43;47.52;101846.28;5074461;28;19948;-86
2022/05/18 05:46:05;;;;;;;;;;;;;;;23.42;47.58;101845.47;5075411;28;20050;-85
2022/05/18 05:48:30;;;;;;;;;;;;;;;23.42;47.34;101847.41;5074059;28;19952;-85
2022/05/18 05:50:57;;;;;;;;;;;;;;;23.43;47.33;101855.38;5075040;28;19931;-84
2022/05/18 05:53:22;;;;;;;;;;;;;;;23.42;47.62;101862.00;5076123;28;19931;-85
2022/05/18 05:55:47;;;;;;;;;;;;;;;23.43;47.75;101862.81;5057554;28;19964;-85
2022/05/18 05:58:15;;;;;;;;;;;;;;;23.43;47.31;101860.06;5074703;28;19931;-85
2022/05/18 06:00:40;;;;;;;;;;;;;;;23.43;47.32;101866.41;5074138;28;19938;-83
2022/05/18 06:03:05;;;;;;;;;;;;;;;23.43;47.83;101866.41;5074667;28;19948;-85
2022/05/18 06:05:31;;;;;;;;;;;;;;;23.43;47.83;101885.69;5073789;28;19960;-84
2022/05/18 06:07:56;;;;;;;;;;;;;;;23.44;47.48;101881.84;5074857;28;20340;-84
2022/05/18 06:10:21;;;;;;;;;;;;;;;23.44;47.71;101881.84;5057248;28;19947;-84
2022/05/18 06:12:47;;;;;;;;;;;;;;;23.44;47.55;101887.34;5073960;28;19978;-84
2022/05/18 06:15:12;;;;;;;;;;;;;;;23.44;47.54;101887.34;5074889;28;20379;-85
2022/05/18 06:17:37;;;;;;;;;;;;;;;23.45;47.95;101896.44;5057212;28;19936;-85
2022/05/18 06:20:03;;;;;;;;;;;;;;;23.44;47.87;101898.38;5074019;28;20357;-85
2022/05/18 06:22:28;;;;;;;;;;;;;;;23.45;47.66;101902.75;5073945;28;19974;-84
2022/05/18 06:24:53;;;;;;;;;;;;;;;23.45;47.50;101900.00;5073840;28;19947;-84
2022/05/18 06:27:19;;;;;;;;;;;;;;;23.45;47.82;101901.94;5074324;28;19986;-89
2022/05/18 06:29:45;;;;;;;;;;;;;;;23.46;47.61;101896.16;5075129;28;19938;-86
2022/05/18 06:32:11;;;;;;;;;;;;;;;23.47;47.63;101899.72;5074371;28;19926;-87
2022/05/18 06:34:36;;;;;;;;;;;;;;;23.47;48.03;101895.00;5076914;28;19920;-90
2022/05/18 06:37:03;;;;;;;;;;;;;;;23.47;47.79;101897.78;5076173;28;19916;-90
2022/05/18 06:39:31;;;;;;;;;;;;;;;23.49;48.04;101903.00;5073439;28;19942;-91
2022/05/18 06:41:57;;;;;;;;;;;;;;;23.49;47.60;101900.25;5073717;28;20379;-89
2022/05/18 06:44:24;;;;;;;;;;;;;;;23.50;47.69;101919.22;5056380;28;19920;-84
2022/05/18 06:46:49;;;;;;;;;;;;;;;23.51;47.64;101920.88;5074056;28;19922;-83
2022/05/18 06:49:16;;;;;;;;;;;;;;;23.53;47.63;101923.31;5074022;28;20022;-83
2022/05/18 06:51:44;;;;;;;;;;;;;;;23.53;47.81;101924.13;5072201;28;21358;-80
2022/05/18 06:54:10;;;;;;;;;;;;;;;23.55;47.69;101923.84;5074652;28;19931;-83
2022/05/18 06:56:37;;;;;;;;;;;;;;;23.56;48.14;101928.22;5073867;28;19920;-80
2022/05/18 06:59:03;;;;;;;;;;;;;;;23.58;48.07;101925.16;5074394;28;19943;-83
2022/05/18 07:01:28;;;;;;;;;;;;;;;23.58;48.21;101923.22;5072215;28;19916;-83
2022/05/18 07:03:54;;;;;;;;;;;;;;;23.59;48.15;101929.59;5073469;28;20316;-85
2022/05/18 07:06:21;;;;;;;;;;;;;;;23.60;48.24;101929.25;5073623;28;20321;-83
2022/05/18 07:08:46;;;;;;;;;;;;;;;23.61;47.93;101943.88;5073864;28;19981;-87
2022/05/18 07:11:12;;;;;;;;;;;;;;;23.62;48.34;101942.75;5072490;28;19924;-87
2022/05/18 07:13:38;;;;;;;;;;;;;;;23.63;48.38;101942.44;5073902;28;19926;-84
2022/05/18 07:16:03;;;;;;;;;;;;;;;23.64;48.31;101941.34;5072616;28;20368;-87
2022/05/18 07:18:29;;;;;;;;;;;;;;;23.65;48.22;101936.63;5072553;28;19931;-86
2022/05/18 07:20:58;;;;;;;;;;;;;;;23.65;47.99;101934.69;5073902;28;20387;-88
2022/05/18 07:23:27;;;;;;;;;;;;;;;23.66;48.33;101935.50;5073730;28;20371;-87
2022/05/18 07:25:56;;;;;;;;;;;;;;;23.67;48.39;101939.91;5073621;28;19943;-89
2022/05/18 07:28:21;;;;;;;;;;;;;;;23.67;48.46;101940.72;5073860;28;19970;-86
2022/05/18 07:30:47;;;;;;;;;;;;;;;23.67;48.17;101940.72;5073737;28;19917;-87
2022/05/18 07:33:13;;;;;;;;;;;;;;;23.69;48.20;101945.94;5072428;28;19921;-88
2022/05/18 07:35:38;;;;;;;;;;;;;;;23.70;48.56;101950.34;5073599;28;19931;-87
2022/05/18 07:38:04;;;;;;;;;;;;;;;23.70;48.47;101955.84;5072571;28;19990;-87
2022/05/18 07:40:29;;;;;;;;;;;;;;;23.70;48.56;101959.44;5073876;28;19917;-88
2022/05/18 07:42:56;;;;;;;;;;;;;;;23.71;48.56;101963.00;5055457;28;19920;-88
2022/05/18 07:45:25;;;;;;;;;;;;;;;23.71;48.17;101954.72;5071951;28;19927;-85
2022/05/18 07:47:52;;;;;;;;;;;;;;;23.72;48.22;101959.13;5072766;28;20041;-85
2022/05/18 07:50:18;;;;;;;;;;;;;;;23.72;48.27;101959.13;5072015;28;20116;-80
2022/05/18 07:52:43;;;;;;;;;;;;;;;23.72;48.59;101962.75;5072251;28;20422;-83
2022/05/18 07:55:09;;;;;;;;;;;;;;;23.72;48.58;101959.97;5072537;28;19920;-85
2022/05/18 07:57:34;;;;;;;;;;;;;;;23.74;48.61;101954.19;5055152;28;20357;-86
2022/05/18 07:59:59;;;;;;;;;;;;;;;23.73;48.35;101956.09;5072291;28;19921;-89
2022/05/18 08:02:29;;;;;;;;;;;;;;;23.74;48.28;101956.94;5073441;28;19986;-96
2022/05/18 08:04:55;;;;;;;;;;;;;;;23.74;48.67;101963.25;5073584;28;19942;-94
2022/05/18 08:07:20;;;;;;;;;;;;;;;23.75;48.44;101958.56;5075009;28;19939;-91
2022/05/18 08:15:14;;;;;;;;;;;;;;;23.77;48.45;101966.53;5077752;28;20401;-93
2022/05/18 08:17:43;;;;;;;;;;;;;;;23.77;48.28;101967.34;5079001;28;19931;-92
2022/05/18 08:20:09;;;;;;;;;;;;;;;23.77;48.32;101975.63;5077088;28;19933;-91
2022/05/18 08:22:35;;;;;;;;;;;;;;;23.78;48.69;101977.25;5076381;28;19945;-88
2022/05/18 08:25:01;;;;;;;;;;;;;;;23.79;48.76;101980.84;5076947;28;19942;-88
2022/05/18 08:27:27;;;;;;;;;;;;;;;23.79;48.68;101976.16;5076608;28;19941;-88
2022/05/18 08:29:58;;;;;;;;;;;;;;;23.79;48.50;101975.31;5076459;28;19942;-87
2022/05/18 08:32:23;;;;;;;;;;;;;;;23.81;48.38;101990.44;5076842;28;19927;-90
2022/05/18 08:34:49;;;;;;;;;;;;;;;23.81;48.85;101981.34;5059519;28;19942;-91
2022/05/18 08:37:14;;;;;;;;;;;;;;;23.82;48.88;101978.31;5077013;28;19928;-90
2022/05/18 08:39:39;;;;;;;;;;;;;;;23.83;48.76;101984.63;5059196;28;20292;-89
2022/05/18 08:42:05;;;;;;;;;;;;;;;23.82;48.54;101992.09;5058789;28;19921;-85
2022/05/18 08:44:34;;;;;;;;;;;;;;;23.84;48.41;101991.78;5076715;28;19951;-94
2022/05/18 08:47:16;;;;;;;;;;;;;;;23.83;48.59;101985.44;5076618;28;19917;-91
2022/05/18 08:49:51;;;;;;;;;;;;;;;23.85;48.84;101985.16;5075094;28;19924;-85
2022/05/18 08:52:32;;;;;;;;;;;;;;;23.84;48.75;101981.59;5075124;28;19938;-86
2022/05/18 08:55:16;;;;;;;;;;;;;;;23.85;48.34;101983.22;5075023;28;20391;-90
2022/05/18 08:57:43;;;;;;;;;;;;;;;23.86;48.37;101987.59;5074951;28;19937;-88
2022/05/18 09:00:28;;;;;;;;;;;;;;;23.86;48.44;101990.34;5076116;28;19980;-88
2022/05/18 09:03:04;;;;;;;;;;;;;;;23.88;48.76;101990.06;5069058;28;19931;-86
2022/05/18 09:05:53;;;;;;;;;;;;;;;23.88;48.78;101987.31;5075066;28;19953;-86
2022/05/18 09:08:38;;;;;;;;;;;;;;;23.88;48.40;101987.31;5076282;28;19916;-88
2022/05/18 09:11:14;;;;;;;;;;;;;;;23.89;48.42;101994.44;5075108;28;19959;-88
2022/05/18 09:13:40;;;;;;;;;;;;;;;23.89;48.37;102003.56;5075758;28;19917;-90
2022/05/18 09:16:13;;;;;;;;;;;;;;;23.90;48.83;101998.88;5075543;28;20366;-94
2022/05/18 09:18:49;;;;;;;;;;;;;;;23.90;48.73;101996.91;5076560;28;20030;-86
2022/05/18 09:21:15;;;;;;;;;;;;;;;23.91;48.87;101997.72;5079918;28;20368;-87
2022/05/18 09:23:46;;;;;;;;;;;;;;;23.91;48.93;102004.09;5075781;28;19917;-86
2022/05/18 09:26:12;;;;;;;;;;;;;;;23.92;48.55;102005.72;5074760;28;19923;-86
2022/05/18 09:28:37;;;;;;;;;;;;;;;23.93;48.76;102009.28;5076090;28;19916;-85
2022/05/18 09:31:08;;;;;;;;;;;;;;;23.93;48.80;102003.78;5075460;28;19930;-84
2022/05/18 09:33:36;;;;;;;;;;;;;;;23.94;48.46;102005.44;5074670;28;20352;-84
2022/05/18 09:36:02;;;;;;;;;;;;;;;23.94;48.41;101997.16;5075035;28;19968;-84
2022/05/18 09:38:46;;;;;;;;;;;;;;;23.94;48.74;102005.44;5074653;28;20255;-86
2022/05/18 09:41:13;;;;;;;;;;;;;;;23.94;48.60;101997.16;5074337;28;19987;-84
2022/05/18 09:43:46;;;;;;;;;;;;;;;23.95;48.52;101996.00;5075614;28;20405;-82
2022/05/18 09:46:12;;;;;;;;;;;;;;;23.95;48.76;101994.06;5074951;28;19966;-82
2022/05/18 09:48:41;;;;;;;;;;;;;;;23.97;48.75;101999.28;5075475;28;20252;-83
2022/05/18 09:51:08;;;;;;;;;;;;;;;23.96;48.67;101990.19;5075746;28;20007;-83
2022/05/18 09:53:33;;;;;;;;;;;;;;;23.98;48.31;101989.88;5074819;28;19966;-84
2022/05/18 09:55:59;;;;;;;;;;;;;;;23.98;48.42;102000.91;5074118;28;19930;-87
2022/05/18 09:58:35;;;;;;;;;;;;;;;23.97;48.38;101991.81;5057852;28;19947;-86
2022/05/18 10:09:48;;;;;;;;;;;;;;;24.01;48.72;101993.97;5074892;28;19992;-83
2022/05/18 10:12:26;;;;;;;;;;;;;;;24.02;48.38;101988.16;5073942;28;20033;-83
2022/05/18 10:15:03;;;;;;;;;;;;;;;24.03;48.31;102002.78;5073510;28;20272;-84
2022/05/18 10:17:44;;;;;;;;;;;;;;;24.03;48.25;101998.06;5075008;28;20021;-83
2022/05/18 10:20:19;;;;;;;;;;;;;;;24.04;48.22;102001.63;5073651;28;19924;-85
2022/05/18 10:22:44;;;;;;;;;;;;;;;24.04;48.65;102005.25;5075120;28;20401;-83
2022/05/18 10:25:11;;;;;;;;;;;;;;;24.05;48.24;102000.53;5074588;28;19951;-83
2022/05/18 10:27:41;;;;;;;;;;;;;;;24.05;48.65;101993.06;5074511;28;20391;-85
2022/05/18 10:30:08;;;;;;;;;;;;;;;24.05;48.55;101995.03;5073228;28;19935;-85
2022/05/18 10:32:34;;;;;;;;;;;;;;;24.07;48.26;101992.78;5074279;28;20329;-83
2022/05/18 10:35:01;;;;;;;;;;;;;;;24.07;48.54;101988.06;5072450;28;19926;-83
2022/05/18 10:37:36;;;;;;;;;;;;;;;24.07;48.17;101988.06;5075432;28;19920;-85
2022/05/18 10:40:08;;;;;;;;;;;;;;;24.08;48.21;101986.94;5073151;28;19944;-85
2022/05/18 10:42:45;;;;;;;;;;;;;;;24.08;48.10;101983.38;5072936;28;19923;-86
2022/05/18 10:45:26;;;;;;;;;;;;;;;24.09;48.09;101980.31;5074760;28;20000;-86
2022/05/18 10:47:51;;;;;;;;;;;;;;;24.09;48.02;101983.06;5074300;28;19924;-85
2022/05/18 10:50:25;;;;;;;;;;;;;;;24.10;47.97;101981.13;5074684;28;19958;-86
2022/05/18 10:53:10;;;;;;;;;;;;;;;24.10;48.14;101986.63;5073456;28;19917;-89
2022/05/18 10:55:40;;;;;;;;;;;;;;;24.10;48.32;101981.13;5072958;28;20383;-89
2022/05/18 10:58:11;;;;;;;;;;;;;;;24.11;48.49;101982.75;5072568;28;20379;-91
2022/05/18 11:00:46;;;;;;;;;;;;;;;24.10;48.00;101978.34;5074617;28;19921;-88
2022/05/18 11:03:23;;;;;;;;;;;;;;;24.11;48.05;101980.81;5073972;28;19969;-88
2022/05/18 11:05:52;;;;;;;;;;;;;;;24.12;48.50;101973.34;5072515;28;20368;-92
2022/05/18 11:08:19;;;;;;;;;;;;;;;24.12;48.01;101973.34;5073826;28;19927;-87
2022/05/18 11:10:50;;;;;;;;;;;;;;;24.12;48.10;101965.06;5072844;28;19920;-89
2022/05/18 11:13:24;;;;;;;;;;;;;;;24.12;48.00;101971.41;5073820;28;19939;-87
2022/05/18 11:16:10;;;;;;;;;;;;;;;24.13;48.11;101978.56;5072496;28;19923;-87
2022/05/18 11:18:48;;;;;;;;;;;;;;;24.13;48.16;101978.56;5071497;28;19938;-87
2022/05/18 11:21:32;;;;;;;;;;;;;;;24.14;48.03;101976.59;5073183;28;19954;-85
2022/05/18 11:24:05;;;;;;;;;;;;;;;24.15;48.34;101967.22;5072195;28;19917;-86
2022/05/18 11:26:30;;;;;;;;;;;;;;;24.15;48.08;101964.47;5073047;28;20276;-83
2022/05/18 11:29:14;;;;;;;;;;;;;;;24.16;48.43;101966.09;5073086;28;19938;-83
2022/05/18 11:31:48;;;;;;;;;;;;;;;24.16;48.41;101966.09;5072977;28;19939;-82
2022/05/18 11:34:26;;;;;;;;;;;;;;;24.17;47.98;101970.50;5072345;28;19916;-82
2022/05/18 11:37:12;;;;;;;;;;;;;;;24.17;48.03;101968.56;5072729;28;20348;-82
2022/05/18 11:39:40;;;;;;;;;;;;;;;24.19;48.01;101959.94;5061337;28;19950;-83
2022/05/18 11:42:30;;;;;;;;;;;;;;;24.19;48.02;101960.78;5073099;28;19939;-80
2022/05/18 11:44:55;;;;;;;;;;;;;;;24.21;47.93;101962.41;5072297;28;20372;-83
2022/05/18 11:47:31;;;;;;;;;;;;;;;24.22;47.95;101961.28;5077652;28;19961;-86
2022/05/18 11:50:12;;;;;;;;;;;;;;;24.23;48.00;101969.28;5078826;28;20296;-85
2022/05/18 11:52:47;;;;;;;;;;;;;;;24.23;48.00;101960.97;5079168;28;20500;-82
2022/05/18 11:55:22;;;;;;;;;;;;;;;24.24;48.16;101961.78;5081011;28;19960;-83
2022/05/18 11:57:50;;;;;;;;;;;;;;;24.25;48.13;101955.16;5079009;28;19916;-82
2022/05/18 12:00:44;;;;;;;;;;;;;;;24.26;48.26;101962.31;5080112;28;19938;-82
2022/05/18 12:03:25;;;;;;;;;;;;;;;24.27;48.02;101963.97;5080072;28;20298;-84
2022/05/18 12:05:54;;;;;;;;;;;;;;;24.28;47.97;101960.06;5078766;28;19950;-85
2022/05/18 12:08:28;;;;;;;;;;;;;;;24.28;47.88;101960.88;5078998;28;19938;-82
2022/05/18 12:10:59;;;;;;;;;;;;;;;24.29;47.86;101962.53;5079207;28;19924;-87
2022/05/18 12:13:25;;;;;;;;;;;;;;;24.30;47.95;101961.41;5079929;28;19927;-85
2022/05/18 12:16:12;;;;;;;;;;;;;;;24.31;47.83;101965.78;5079897;28;20008;-83
2022/05/18 12:18:40;;;;;;;;;;;;;;;24.31;47.94;101957.50;5079186;28;19991;-82
2022/05/18 12:21:09;;;;;;;;;;;;;;;24.31;47.93;101949.22;5078524;28;19931;-84
2022/05/18 12:23:42;;;;;;;;;;;;;;;24.32;47.90;101950.88;5078570;28;19923;-83
2022/05/18 12:26:07;;;;;;;;;;;;;;;24.33;47.75;101946.97;5078368;28;19924;-84
2022/05/18 12:28:33;;;;;;;;;;;;;;;24.35;47.99;101957.72;5061762;28;19921;-86
2022/05/18 12:31:00;;;;;;;;;;;;;;;24.35;48.04;101944.72;5079735;28;19962;-85
2022/05/18 12:33:25;;;;;;;;;;;;;;;24.36;47.78;101948.31;5079730;28;19920;-87
2022/05/18 12:35:50;;;;;;;;;;;;;;;24.36;48.13;101951.06;5079431;28;19935;-85
2022/05/18 12:38:30;;;;;;;;;;;;;;;24.37;47.73;101944.44;5078505;28;19966;-85
2022/05/18 12:41:02;;;;;;;;;;;;;;;24.39;47.89;101961.50;5079761;28;20386;-83
2022/05/18 12:43:38;;;;;;;;;;;;;;;24.38;47.83;101955.16;5078566;28;19949;-82
2022/05/18 12:46:05;;;;;;;;;;;;;;;24.40;47.72;101949.34;5077957;28;20015;-82
2022/05/18 12:48:33;;;;;;;;;;;;;;;24.40;48.19;101943.81;5079375;28;20402;-83
2022/05/18 12:51:07;;;;;;;;;;;;;;;24.40;47.89;101947.38;5079709;28;19923;-82
2022/05/18 12:53:58;;;;;;;;;;;;;;;24.40;48.17;101950.16;5078333;28;19956;-82
2022/05/18 12:56:46;;;;;;;;;;;;;;;24.41;47.75;101943.50;5064096;28;19940;-82
2022/05/18 12:59:13;;;;;;;;;;;;;;;24.43;47.60;101945.16;5076115;28;20379;-81
2022/05/18 13:01:39;;;;;;;;;;;;;;;24.43;47.69;101948.72;5075144;28;19916;-82